createdAt,value
2019-02-28T00:00:07.323Z,7.65
2019-02-28T00:02:39.898Z,7.71
2019-02-28T00:05:11.389Z,7.80
2019-02-28T00:07:42.473Z,7.74
2019-02-28T00:10:15.198Z,7.80
2019-02-28T00:12:48.043Z,8.17
2019-02-28T00:15:19.517Z,8.65
2019-02-28T00:17:50.290Z,8.45
2019-02-28T00:20:22.552Z,8.61
2019-02-28T00:22:55.451Z,9.33
2019-02-28T00:25:27.584Z,9.13
2019-02-28T00:27:59.010Z,9.61
2019-02-28T00:30:29.871Z,9.64
2019-02-28T00:33:01.109Z,9.65
2019-02-28T00:35:34.478Z,9.25
2019-02-28T00:38:06.052Z,9.63
2019-02-28T00:40:38.698Z,9.53
2019-02-28T00:43:11.572Z,9.33
2019-02-28T00:45:43.139Z,9.31
2019-02-28T00:48:18.205Z,9.17
2019-02-28T00:50:50.159Z,9.13
2019-02-28T00:53:22.771Z,8.83
2019-02-28T00:55:55.246Z,9.39
2019-02-28T00:58:28.869Z,9.44
2019-02-28T01:00:59.315Z,9.46
2019-02-28T01:03:32.732Z,10.10
2019-02-28T01:06:09.764Z,10.47
2019-02-28T01:08:39.338Z,10.38
2019-02-28T01:11:13.257Z,10.84
2019-02-28T01:13:46.098Z,10.98
2019-02-28T01:16:19.425Z,10.57
2019-02-28T01:18:59.231Z,10.90
2019-02-28T01:21:30.356Z,10.70
2019-02-28T01:24:01.834Z,10.65
2019-02-28T01:26:34.623Z,10.59
2019-02-28T01:29:05.766Z,10.40
2019-02-28T01:31:37.545Z,10.68
2019-02-28T01:34:10.059Z,10.64
2019-02-28T01:36:42.818Z,10.62
2019-02-28T01:39:15.247Z,10.54
2019-02-28T01:41:47.334Z,9.93
2019-02-28T01:44:19.860Z,9.47
2019-02-28T01:46:51.720Z,9.23
2019-02-28T01:49:25.856Z,9.14
2019-02-28T01:51:58.311Z,9.03
2019-02-28T01:54:31.057Z,8.68
2019-02-28T01:57:03.570Z,8.64
2019-02-28T01:59:36.400Z,8.55
2019-02-28T02:02:09.064Z,8.92
2019-02-28T02:04:40.295Z,8.85
2019-02-28T02:07:11.185Z,9.16
2019-02-28T02:09:42.645Z,9.63
2019-02-28T02:12:15.925Z,9.96
2019-02-28T02:14:46.975Z,9.96
2019-02-28T02:17:19.650Z,10.08
2019-02-28T02:19:52.147Z,10.08
2019-02-28T02:22:24.902Z,9.78
2019-02-28T02:24:55.954Z,10.04
2019-02-28T02:27:28.914Z,10.09
2019-02-28T02:30:00.449Z,10.20
2019-02-28T02:32:37.425Z,10.26
2019-02-28T02:35:08.435Z,10.24
2019-02-28T02:37:41.274Z,9.90
2019-02-28T02:40:14.480Z,9.45
2019-02-28T02:42:48.898Z,9.15
2019-02-28T02:45:20.972Z,9.09
2019-02-28T02:47:52.671Z,8.77
2019-02-28T02:50:23.932Z,9.42
2019-02-28T02:52:56.371Z,9.30
2019-02-28T02:55:29.345Z,8.90
2019-02-28T02:58:01.091Z,8.70
2019-02-28T03:00:33.577Z,8.47
2019-02-28T03:03:07.639Z,8.49
2019-02-28T03:05:39.681Z,8.27
2019-02-28T03:08:10.574Z,8.58
2019-02-28T03:10:42.184Z,8.91
2019-02-28T03:13:14.894Z,8.84
2019-02-28T03:15:47.048Z,8.76
2019-02-28T03:18:20.709Z,8.57
2019-02-28T03:20:52.749Z,8.13
2019-02-28T03:23:25.259Z,8.49
2019-02-28T03:26:05.534Z,8.83
2019-02-28T03:28:32.018Z,8.85
2019-02-28T03:31:14.104Z,9.27
2019-02-28T03:33:40.084Z,9.79
2019-02-28T03:36:15.643Z,9.51
2019-02-28T03:38:49.818Z,9.58
2019-02-28T03:41:21.873Z,9.55
2019-02-28T03:43:54.539Z,9.59
2019-02-28T03:46:26.971Z,9.53
2019-02-28T03:48:59.904Z,9.24
2019-02-28T03:51:33.139Z,9.73
2019-02-28T03:54:05.630Z,9.67
2019-02-28T03:56:36.988Z,9.41
2019-02-28T03:59:08.114Z,9.60
2019-02-28T04:01:44.817Z,9.65
2019-02-28T04:04:12.518Z,9.75
2019-02-28T04:06:43.738Z,9.70
2019-02-28T04:09:14.818Z,9.59
2019-02-28T04:11:45.861Z,9.64
2019-02-28T04:14:16.765Z,9.54
2019-02-28T04:16:52.522Z,9.45
2019-02-28T04:19:22.654Z,8.83
2019-02-28T04:21:52.951Z,8.85
2019-02-28T04:24:23.807Z,9.12
2019-02-28T04:26:54.852Z,9.15
2019-02-28T04:29:29.816Z,9.11
2019-02-28T04:31:58.304Z,9.43
2019-02-28T04:34:29.577Z,9.45
2019-02-28T04:37:00.386Z,9.43
2019-02-28T04:39:31.486Z,9.35
2019-02-28T04:42:05.022Z,9.22
2019-02-28T04:44:35.086Z,9.06
2019-02-28T04:47:06.775Z,8.92
2019-02-28T04:49:38.321Z,8.99
2019-02-28T04:52:11.841Z,8.65
2019-02-28T04:54:41.816Z,8.94
2019-02-28T04:57:14.110Z,8.89
2019-02-28T04:59:45.205Z,8.93
2019-02-28T05:02:19.756Z,8.67
2019-02-28T05:04:49.172Z,8.47
2019-02-28T05:07:20.279Z,8.32
2019-02-28T05:09:51.311Z,8.10
2019-02-28T05:12:22.432Z,8.23
2019-02-28T05:14:55.281Z,8.46
2019-02-28T05:17:26.099Z,8.66
2019-02-28T05:19:57.733Z,8.68
2019-02-28T05:22:29.046Z,7.90
2019-02-28T05:25:00.235Z,8.24
2019-02-28T05:27:34.877Z,8.29
2019-02-28T05:30:04.289Z,8.19
2019-02-28T05:32:35.593Z,8.24
2019-02-28T05:35:07.300Z,8.31
2019-02-28T05:37:38.766Z,8.15
2019-02-28T05:40:10.985Z,8.17
2019-02-28T05:42:42.254Z,8.08
2019-02-28T05:45:15.480Z,8.31
2019-02-28T05:47:47.475Z,8.23
2019-02-28T05:50:19.339Z,8.23
2019-02-28T05:52:50.646Z,8.19
2019-02-28T05:55:25.688Z,8.28
2019-02-28T05:57:54.093Z,8.14
2019-02-28T06:00:25.654Z,8.03
2019-02-28T06:02:58.024Z,8.07
2019-02-28T06:05:29.074Z,8.01
2019-02-28T06:08:00.575Z,7.94
2019-02-28T06:10:32.707Z,7.89
2019-02-28T06:13:03.826Z,8.03
2019-02-28T06:15:37.158Z,8.01
2019-02-28T06:18:07.359Z,7.92
2019-02-28T06:20:38.154Z,7.90
2019-02-28T06:23:09.347Z,7.74
2019-02-28T06:25:40.927Z,7.83
2019-02-28T06:28:12.398Z,7.95
2019-02-28T06:30:43.500Z,7.83
2019-02-28T06:33:15.834Z,7.87
2019-02-28T06:35:49.546Z,7.73
2019-02-28T06:38:19.278Z,7.71
2019-02-28T06:40:51.178Z,7.79
2019-02-28T06:43:22.151Z,7.92
2019-02-28T06:45:53.247Z,7.86
2019-02-28T06:48:26.569Z,7.98
2019-02-28T06:50:56.967Z,7.78
2019-02-28T06:53:30.759Z,7.81
2019-02-28T06:56:02.477Z,7.93
2019-02-28T06:58:33.955Z,7.98
2019-02-28T07:01:05.274Z,7.99
2019-02-28T07:03:38.924Z,7.90
2019-02-28T07:06:08.652Z,8.01
2019-02-28T07:08:41.019Z,8.00
2019-02-28T07:11:12.043Z,8.14
2019-02-28T07:13:43.302Z,8.11
2019-02-28T07:16:14.193Z,8.26
2019-02-28T07:18:45.081Z,8.40
2019-02-28T07:21:15.878Z,8.44
2019-02-28T07:23:46.799Z,8.45
2019-02-28T07:26:19.521Z,8.52
2019-02-28T07:28:51.682Z,8.61
2019-02-28T07:31:24.667Z,8.69
2019-02-28T07:33:55.776Z,8.77
2019-02-28T07:36:26.566Z,8.73
2019-02-28T07:38:57.893Z,8.85
2019-02-28T07:41:29.906Z,8.89
2019-02-28T07:44:00.709Z,9.01
2019-02-28T07:46:31.754Z,9.04
2019-02-28T07:49:02.558Z,9.16
2019-02-28T07:51:33.605Z,9.04
2019-02-28T07:54:05.769Z,9.14
2019-02-28T07:56:42.483Z,9.24
2019-02-28T07:59:09.178Z,9.37
2019-02-28T08:01:40.246Z,9.45
2019-02-28T08:04:18.108Z,9.54
2019-02-28T08:06:45.721Z,9.64
2019-02-28T08:09:26.777Z,9.55
2019-02-28T08:11:57.589Z,9.68
2019-02-28T08:14:28.651Z,9.78
2019-02-28T08:16:59.710Z,10.05
2019-02-28T08:19:30.538Z,10.12
2019-02-28T08:22:01.674Z,10.09
2019-02-28T08:24:35.892Z,10.12
2019-02-28T08:27:05.152Z,10.33
2019-02-28T08:29:35.987Z,10.45
2019-02-28T08:32:08.156Z,10.31
2019-02-28T08:34:39.243Z,10.33
2019-02-28T08:37:11.158Z,10.35
2019-02-28T08:39:42.280Z,10.57
2019-02-28T08:42:13.396Z,10.72
2019-02-28T08:44:44.537Z,10.85
2019-02-28T08:47:17.790Z,10.86
2019-02-28T08:49:48.034Z,10.94
2019-02-28T08:52:19.189Z,10.91
2019-02-28T08:54:50.807Z,11.13
2019-02-28T08:57:25.723Z,11.25
2019-02-28T08:59:56.234Z,11.23
2019-02-28T09:02:27.682Z,11.21
2019-02-28T09:04:58.575Z,11.20
2019-02-28T09:07:29.693Z,11.27
2019-02-28T09:10:00.742Z,11.38
2019-02-28T09:12:33.199Z,11.35
2019-02-28T09:15:04.324Z,11.49
2019-02-28T09:17:37.869Z,11.48
2019-02-28T09:20:10.516Z,11.55
2019-02-28T09:22:41.985Z,11.67
2019-02-28T09:25:14.335Z,11.65
2019-02-28T09:27:45.253Z,11.70
2019-02-28T09:30:29.787Z,11.83
2019-02-28T09:33:00.829Z,11.91
2019-02-28T09:35:32.218Z,12.01
2019-02-28T09:38:06.352Z,12.21
2019-02-28T09:40:36.001Z,12.16
2019-02-28T09:43:06.946Z,12.30
2019-02-28T09:45:39.834Z,12.36
2019-02-28T09:48:10.992Z,12.39
2019-02-28T09:50:42.102Z,12.39
2019-02-28T09:53:15.835Z,12.42
2019-02-28T09:55:45.754Z,12.38
2019-02-28T09:58:16.750Z,12.60
2019-02-28T10:00:50.230Z,12.64
2019-02-28T10:03:20.502Z,12.72
2019-02-28T10:05:51.424Z,12.83
2019-02-28T10:08:22.473Z,12.72
2019-02-28T10:10:55.926Z,12.83
2019-02-28T10:13:26.252Z,12.95
2019-02-28T10:15:57.356Z,13.04
2019-02-28T10:18:28.336Z,13.07
2019-02-28T10:21:01.843Z,13.12
2019-02-28T10:23:32.077Z,13.40
2019-02-28T10:26:03.184Z,13.39
2019-02-28T10:28:34.020Z,13.59
2019-02-28T10:31:04.937Z,13.77
2019-02-28T10:33:35.848Z,14.14
2019-02-28T10:36:09.324Z,14.20
2019-02-28T10:38:39.574Z,14.51
2019-02-28T10:41:11.356Z,14.51
2019-02-28T10:43:42.345Z,14.68
2019-02-28T10:46:16.421Z,14.81
2019-02-28T10:48:50.850Z,15.08
2019-02-28T10:51:19.941Z,15.37
2019-02-28T10:53:51.036Z,15.55
2019-02-28T10:56:22.135Z,15.88
2019-02-28T10:58:53.843Z,15.90
2019-02-28T11:02:00.010Z,15.93
2019-02-28T11:04:42.786Z,16.22
2019-02-28T11:07:10.433Z,16.40
2019-02-28T11:09:41.464Z,16.52
2019-02-28T11:12:19.757Z,16.53
2019-02-28T11:14:46.463Z,16.37
2019-02-28T11:17:17.990Z,16.21
2019-02-28T11:19:51.990Z,16.04
2019-02-28T11:22:22.234Z,16.12
2019-02-28T11:24:53.589Z,16.15
2019-02-28T11:27:24.718Z,16.09
2019-02-28T11:29:55.886Z,16.08
2019-02-28T11:32:29.388Z,16.28
2019-02-28T11:34:59.600Z,16.21
2019-02-28T11:37:30.775Z,16.44
2019-02-28T11:40:01.613Z,16.63
2019-02-28T11:42:33.785Z,16.87
2019-02-28T11:45:05.078Z,16.78
2019-02-28T11:47:36.851Z,16.89
2019-02-28T11:50:08.391Z,17.14
2019-02-28T11:52:39.486Z,17.45
2019-02-28T11:55:11.801Z,17.30
2019-02-28T11:57:43.202Z,17.10
2019-02-28T12:00:16.947Z,17.15
2019-02-28T12:02:53.324Z,17.37
2019-02-28T12:05:20.668Z,17.31
2019-02-28T12:07:52.149Z,17.25
2019-02-28T12:10:23.109Z,16.99
2019-02-28T12:12:56.309Z,17.23
2019-02-28T12:15:27.802Z,17.21
2019-02-28T12:18:03.498Z,17.27
2019-02-28T12:20:31.780Z,17.27
2019-02-28T12:23:02.891Z,17.45
2019-02-28T12:25:33.965Z,17.41
2019-02-28T12:28:06.655Z,17.52
2019-02-28T12:30:37.874Z,17.50
2019-02-28T12:33:08.749Z,17.87
2019-02-28T12:35:40.686Z,18.02
2019-02-28T12:38:11.853Z,18.18
2019-02-28T12:40:45.654Z,18.32
2019-02-28T12:43:15.630Z,18.48
2019-02-28T12:45:47.457Z,18.49
2019-02-28T12:48:18.945Z,18.64
2019-02-28T12:50:50.498Z,18.83
2019-02-28T12:53:25.240Z,18.92
2019-02-28T12:55:54.146Z,19.06
2019-02-28T12:58:25.037Z,19.12
2019-02-28T13:00:56.473Z,18.91
2019-02-28T13:03:28.985Z,18.86
2019-02-28T13:05:59.820Z,18.90
2019-02-28T13:08:31.497Z,18.73
2019-02-28T13:11:04.386Z,18.84
2019-02-28T13:13:34.997Z,18.94
2019-02-28T13:16:06.179Z,19.09
2019-02-28T13:18:39.515Z,19.16
2019-02-28T13:21:10.654Z,19.31
2019-02-28T13:23:43.062Z,19.38
2019-02-28T13:26:13.978Z,19.23
2019-02-28T13:28:45.346Z,19.17
2019-02-28T13:31:16.432Z,19.48
2019-02-28T13:33:48.586Z,19.36
2019-02-28T13:36:21.714Z,19.27
2019-02-28T13:38:54.833Z,19.29
2019-02-28T13:41:26.540Z,19.40
2019-02-28T13:43:59.499Z,19.48
2019-02-28T13:46:37.375Z,19.39
2019-02-28T13:49:12.077Z,19.08
2019-02-28T13:51:42.657Z,19.23
2019-02-28T13:54:13.608Z,19.43
2019-02-28T13:56:44.600Z,19.05
2019-02-28T13:59:15.477Z,18.93
2019-02-28T14:01:46.680Z,19.23
2019-02-28T14:04:18.720Z,19.44
2019-02-28T14:06:52.519Z,19.39
2019-02-28T14:09:23.077Z,19.46
2019-02-28T14:11:54.790Z,19.30
2019-02-28T14:14:25.912Z,19.32
2019-02-28T14:16:58.301Z,19.44
2019-02-28T14:19:30.451Z,19.35
2019-02-28T14:22:01.292Z,19.30
2019-02-28T14:24:32.161Z,19.03
2019-02-28T14:27:03.134Z,19.01
2019-02-28T14:29:34.337Z,19.07
2019-02-28T14:32:07.532Z,18.97
2019-02-28T14:34:38.562Z,19.00
2019-02-28T14:37:09.938Z,18.95
2019-02-28T14:39:42.726Z,18.91
2019-02-28T14:42:13.954Z,18.84
2019-02-28T14:44:45.509Z,18.84
2019-02-28T14:47:16.388Z,18.88
2019-02-28T14:49:47.497Z,18.91
2019-02-28T14:52:18.610Z,19.00
2019-02-28T14:54:49.402Z,18.92
2019-02-28T14:57:20.537Z,18.88
2019-02-28T14:59:52.051Z,18.98
2019-02-28T15:02:27.865Z,18.95
2019-02-28T15:04:56.122Z,18.94
2019-02-28T15:07:27.933Z,18.82
2019-02-28T15:10:01.776Z,18.83
2019-02-28T15:12:32.116Z,18.70
2019-02-28T15:15:03.234Z,18.65
2019-02-28T15:17:34.426Z,18.69
2019-02-28T15:20:05.608Z,18.72
2019-02-28T15:22:36.681Z,18.61
2019-02-28T15:25:08.497Z,18.38
2019-02-28T15:27:39.889Z,18.21
2019-02-28T15:30:13.601Z,18.15
2019-02-28T15:32:44.493Z,18.05
2019-02-28T15:35:16.564Z,17.80
2019-02-28T15:37:48.003Z,17.72
2019-02-28T15:40:26.936Z,17.71
2019-02-28T15:42:58.965Z,17.65
2019-02-28T15:45:30.109Z,17.51
2019-02-28T15:48:01.223Z,17.40
2019-02-28T15:50:32.328Z,17.29
2019-02-28T15:53:03.529Z,17.18
2019-02-28T15:55:35.494Z,17.07
2019-02-28T15:58:07.625Z,17.02
2019-02-28T16:00:39.129Z,16.93
2019-02-28T16:03:09.933Z,16.88
2019-02-28T16:05:44.053Z,16.79
2019-02-28T16:08:13.718Z,16.68
2019-02-28T16:10:52.834Z,16.53
2019-02-28T16:13:17.737Z,16.29
2019-02-28T16:15:50.199Z,16.15
2019-02-28T16:18:21.467Z,15.98
2019-02-28T16:20:52.330Z,15.78
2019-02-28T16:23:27.175Z,15.61
2019-02-28T16:25:56.773Z,15.46
2019-02-28T16:28:27.652Z,15.33
2019-02-28T16:30:58.537Z,15.02
2019-02-28T16:33:29.334Z,15.02
2019-02-28T16:36:00.234Z,14.71
2019-02-28T16:38:32.711Z,14.71
2019-02-28T16:41:03.927Z,14.55
2019-02-28T16:43:35.390Z,14.40
2019-02-28T16:46:06.841Z,14.18
2019-02-28T16:48:37.666Z,13.93
2019-02-28T16:51:09.034Z,13.79
2019-02-28T16:53:40.180Z,13.55
2019-02-28T16:56:11.078Z,13.42
2019-02-28T16:58:42.202Z,13.24
2019-02-28T17:01:13.311Z,13.16
2019-02-28T17:03:44.687Z,13.01
2019-02-28T17:06:15.746Z,12.89
2019-02-28T17:09:08.641Z,12.76
2019-02-28T17:11:44.674Z,12.71
2019-02-28T17:14:17.700Z,12.60
2019-02-28T17:17:02.581Z,12.54
2019-02-28T17:19:33.647Z,12.42
2019-02-28T17:22:05.513Z,12.39
2019-02-28T17:24:36.322Z,12.34
2019-02-28T17:27:20.950Z,12.23
2019-02-28T17:30:00.450Z,12.24
2019-02-28T17:32:32.436Z,12.27
2019-02-28T17:35:03.403Z,12.24
2019-02-28T17:37:34.770Z,12.17
2019-02-28T17:40:06.514Z,12.13
2019-02-28T17:42:38.619Z,12.16
2019-02-28T17:45:30.482Z,12.19
2019-02-28T17:48:48.730Z,12.25
2019-02-28T17:51:36.554Z,12.38
2019-02-28T17:54:57.354Z,12.37
2019-02-28T17:57:57.814Z,12.40
2019-02-28T18:01:00.890Z,12.41
2019-02-28T18:04:24.118Z,12.41
2019-02-28T18:07:23.671Z,12.44
2019-02-28T18:10:45.867Z,12.44
2019-02-28T18:13:45.865Z,12.37
2019-02-28T18:16:30.379Z,12.36
2019-02-28T18:19:19.065Z,12.21
2019-02-28T18:22:42.325Z,12.08
2019-02-28T18:26:12.806Z,11.99
2019-02-28T18:29:25.052Z,11.99
2019-02-28T18:31:57.054Z,12.06
2019-02-28T18:34:30.832Z,12.13
2019-02-28T18:37:01.718Z,12.21
2019-02-28T18:39:33.221Z,12.18
2019-02-28T18:42:04.185Z,12.25
2019-02-28T18:44:37.478Z,12.21
2019-02-28T18:47:08.172Z,12.21
2019-02-28T18:49:39.056Z,12.20
2019-02-28T18:52:10.247Z,12.16
2019-02-28T18:54:41.289Z,12.17
2019-02-28T18:57:12.324Z,12.16
2019-02-28T18:59:43.377Z,12.06
2019-02-28T19:02:14.262Z,12.11
2019-02-28T19:04:45.504Z,12.11
2019-02-28T19:07:16.532Z,12.09
2019-02-28T19:09:47.347Z,12.01
2019-02-28T19:12:18.228Z,12.01
2019-02-28T19:14:49.391Z,12.01
2019-02-28T19:17:20.441Z,11.96
2019-02-28T19:19:52.231Z,11.95
2019-02-28T19:22:23.443Z,12.02
2019-02-28T19:24:54.492Z,12.01
2019-02-28T19:27:25.872Z,12.06
2019-02-28T19:29:56.755Z,12.01
2019-02-28T19:32:27.786Z,11.99
2019-02-28T19:35:00.287Z,11.92
2019-02-28T19:37:31.625Z,11.90
2019-02-28T19:40:02.658Z,11.85
2019-02-28T19:42:35.481Z,11.83
2019-02-28T19:45:09.049Z,11.87
2019-02-28T19:47:39.941Z,11.77
2019-02-28T19:50:11.469Z,11.77
2019-02-28T19:52:42.922Z,11.69
2019-02-28T19:55:13.916Z,11.72
2019-02-28T19:57:44.712Z,11.75
2019-02-28T20:00:16.480Z,11.87
2019-02-28T20:02:47.357Z,11.86
2019-02-28T20:05:18.958Z,11.86
2019-02-28T20:10:14.666Z,11.93
2019-02-28T20:12:45.917Z,11.91
2019-02-28T20:15:18.041Z,12.03
2019-02-28T20:17:49.166Z,11.93
2019-02-28T20:20:20.300Z,12.01
2019-02-28T20:22:51.464Z,11.92
2019-02-28T20:25:23.921Z,11.83
2019-02-28T20:27:55.101Z,11.84
2019-02-28T20:30:26.690Z,11.85
2019-02-28T20:32:57.633Z,11.81
2019-02-28T20:35:29.068Z,11.75
2019-02-28T20:38:00.234Z,11.76
2019-02-28T20:40:31.153Z,11.75
2019-02-28T20:43:02.454Z,11.85
2019-02-28T20:45:33.665Z,11.76
2019-02-28T20:48:04.680Z,11.73
2019-02-28T20:50:37.735Z,11.69
2019-02-28T20:53:10.681Z,11.67
2019-02-28T20:55:42.145Z,11.63
2019-02-28T20:58:13.390Z,11.63
2019-02-28T21:00:44.629Z,11.62
2019-02-28T21:03:15.671Z,11.63
2019-02-28T21:05:46.912Z,11.67
2019-02-28T21:08:18.289Z,11.66
2019-02-28T21:10:49.431Z,11.69
2019-02-28T21:13:20.901Z,11.56
2019-02-28T21:15:51.811Z,11.63
2019-02-28T21:18:23.147Z,11.61
2019-02-28T21:20:54.295Z,11.61
2019-02-28T21:23:25.159Z,11.53
2019-02-28T21:25:57.357Z,11.55
2019-02-28T21:28:28.275Z,11.56
2019-02-28T21:30:59.317Z,11.61
2019-02-28T21:33:30.353Z,11.58
2019-02-28T21:36:01.699Z,11.53
2019-02-28T21:38:33.541Z,11.47
2019-02-28T21:41:04.561Z,11.45
2019-02-28T21:43:35.422Z,11.45
2019-02-28T21:46:06.374Z,11.41
2019-02-28T21:48:37.393Z,11.35
2019-02-28T21:51:09.354Z,11.48
2019-02-28T21:53:40.225Z,11.34
2019-02-28T21:56:11.115Z,11.29
2019-02-28T21:58:42.246Z,11.25
2019-02-28T22:01:13.367Z,11.27
2019-02-28T22:03:44.468Z,11.33
2019-02-28T22:06:15.531Z,11.22
2019-02-28T22:08:46.548Z,11.21
2019-02-28T22:11:17.901Z,11.08
2019-02-28T22:13:48.698Z,11.04
2019-02-28T22:16:19.586Z,11.06
2019-02-28T22:18:50.391Z,11.03
2019-02-28T22:21:21.541Z,11.09
2019-02-28T22:23:52.633Z,11.12
2019-02-28T22:26:23.568Z,11.14
2019-02-28T22:28:54.373Z,11.05
2019-02-28T22:31:45.258Z,11.06
2019-02-28T22:34:36.599Z,11.12
2019-02-28T22:37:07.479Z,11.18
2019-02-28T22:39:38.271Z,11.18
2019-02-28T22:42:09.161Z,11.22
2019-02-28T22:44:40.282Z,11.15
2019-02-28T22:47:11.257Z,11.14
2019-02-28T22:49:42.549Z,11.10
2019-02-28T22:52:13.457Z,11.15
2019-02-28T22:54:44.249Z,11.15
2019-02-28T22:57:15.304Z,11.11
2019-02-28T22:59:46.101Z,11.12
2019-02-28T23:02:17.559Z,11.07
2019-02-28T23:04:48.908Z,11.07
2019-02-28T23:07:20.354Z,10.92
2019-02-28T23:09:51.376Z,10.71
2019-02-28T23:12:22.533Z,10.50
2019-02-28T23:14:53.323Z,10.32
2019-02-28T23:17:24.203Z,10.08
2019-02-28T23:19:55.294Z,9.96
2019-02-28T23:22:26.428Z,9.89
2019-02-28T23:24:57.215Z,9.88
2019-02-28T23:27:28.245Z,9.80
2019-02-28T23:30:31.248Z,9.80
2019-02-28T23:33:05.622Z,9.80
2019-02-28T23:35:40.766Z,9.72
2019-02-28T23:38:11.783Z,9.78
2019-02-28T23:40:42.642Z,9.73
2019-02-28T23:43:14.068Z,9.76
2019-02-28T23:45:44.936Z,9.76
2019-02-28T23:48:16.031Z,9.78
2019-02-28T23:50:46.841Z,9.73
2019-02-28T23:53:17.866Z,9.68
2019-02-28T23:55:48.982Z,9.77
2019-02-28T23:58:19.849Z,9.71
